Time;durP1;ratioP1;P1;durP2;ratioP2;P2;SDS_P1;SDS_P2;PMS_P1;PMS_P2;Temp;Humidity;BMP_temperature;BMP_pressure;BME280_temperature;BME280_humidity;BME280_pressure;Samples;Min_cycle;Max_cycle;Signal;HPM_P1;HPM_P2
2024/01/16 00:01:29;;;;;;;0.20;0.20;;;;;;;2.85;72.34;101050.13;5072622;28;20035;-77
2024/01/16 00:03:55;;;;;;;0.20;0.20;;;;;;;2.83;71.91;101043.97;5076528;28;20020;-77
2024/01/16 00:06:21;;;;;;;0.20;0.20;;;;;;;2.83;71.56;101044.88;5075557;28;20035;-78
2024/01/16 00:08:48;;;;;;;0.30;0.30;;;;;;;2.82;71.57;101045.72;5075331;28;20028;-77
2024/01/16 00:11:14;;;;;;;0.20;0.20;;;;;;;2.79;71.67;101048.31;5068142;28;20040;-77
2024/01/16 00:13:40;;;;;;;0.20;0.20;;;;;;;2.79;72.24;101047.41;5071504;28;20036;-77
2024/01/16 00:16:06;;;;;;;0.20;0.20;;;;;;;2.78;72.12;101049.16;5075197;28;20090;-77
2024/01/16 00:18:32;;;;;;;0.20;0.20;;;;;;;2.75;72.32;101051.72;5079099;28;20033;-77
2024/01/16 00:21:02;;;;;;;0.20;0.20;;;;;;;2.77;72.15;101050.00;5079744;28;20071;-77
2024/01/16 00:23:31;;;;;;;0.93;0.93;;;;;;;2.77;72.02;101055.25;5077995;28;20025;-77
2024/01/16 00:25:57;;;;;;;0.20;0.20;;;;;;;2.79;72.25;101050.03;5083261;28;20033;-78
2024/01/16 00:28:23;;;;;;;0.20;0.20;;;;;;;2.81;72.48;101056.19;5082177;28;20040;-78
2024/01/16 00:30:50;;;;;;;0.20;0.20;;;;;;;2.85;72.02;101057.97;5083905;28;20036;-76
2024/01/16 00:33:16;;;;;;;0.20;0.20;;;;;;;2.85;72.16;101064.06;5081744;28;20039;-77
2024/01/16 00:35:42;;;;;;;0.20;0.20;;;;;;;2.84;72.32;101064.06;5079438;28;20017;-77
2024/01/16 00:38:08;;;;;;;0.20;0.20;;;;;;;2.83;72.36;101073.66;5077057;28;20021;-78
2024/01/16 00:40:34;;;;;;;0.52;0.52;;;;;;;2.85;72.38;101074.53;5082293;28;20021;-78
2024/01/16 00:43:01;;;;;;;0.20;0.20;;;;;;;2.88;71.99;101065.88;5084996;28;20183;-79
2024/01/16 00:45:27;;;;;;;0.20;0.20;;;;;;;2.90;71.84;101083.38;5083887;28;20051;-78
2024/01/16 00:47:54;;;;;;;0.20;0.20;;;;;;;2.86;71.54;101071.06;5080626;28;20037;-79
2024/01/16 00:50:20;;;;;;;0.20;0.20;;;;;;;2.92;71.84;101075.53;5084038;28;20028;-78
2024/01/16 00:52:46;;;;;;;0.20;0.20;;;;;;;2.91;71.88;101077.25;5083522;28;20024;-76
2024/01/16 00:55:12;;;;;;;0.20;0.20;;;;;;;2.78;71.70;101083.19;5088965;28;20044;-77
2024/01/16 00:57:38;;;;;;;0.17;0.17;;;;;;;2.89;71.48;101086.84;5081510;28;20024;-77
2024/01/16 01:00:06;;;;;;;0.20;0.20;;;;;;;3.01;71.82;101075.66;5081603;28;20029;-77
2024/01/16 01:02:32;;;;;;;0.20;0.20;;;;;;;3.07;71.32;101077.50;5080168;28;20043;-78
2024/01/16 01:04:58;;;;;;;0.20;0.20;;;;;;;3.06;71.55;101075.75;5082942;28;20052;-78
2024/01/16 01:07:25;;;;;;;0.20;0.20;;;;;;;3.16;71.30;101074.13;5079251;28;20020;-77
2024/01/16 01:09:52;;;;;;;0.20;0.20;;;;;;;3.17;70.82;101071.53;5077930;28;20030;-77
2024/01/16 01:12:18;;;;;;;0.20;0.20;;;;;;;3.12;70.67;101070.59;5091676;28;20025;-77
2024/01/16 01:14:44;;;;;;;0.20;0.20;;;;;;;3.19;70.24;101067.22;5082881;28;20028;-77
2024/01/16 01:17:10;;;;;;;0.20;0.20;;;;;;;3.19;70.18;101068.94;5074602;28;20044;-77
2024/01/16 01:19:36;;;;;;;0.20;0.20;;;;;;;3.15;69.90;101070.63;5076407;28;20033;-77
2024/01/16 01:22:03;;;;;;;0.20;0.20;;;;;;;3.10;69.60;101068.81;5077775;28;20398;-78
2024/01/16 01:24:29;;;;;;;0.20;0.20;;;;;;;3.07;69.67;101074.88;5080675;28;20423;-78
2024/01/16 01:26:55;;;;;;;0.10;0.10;;;;;;;3.10;69.72;101077.53;5077843;28;20050;-78
2024/01/16 01:29:21;;;;;;;0.20;0.20;;;;;;;3.08;69.91;101076.66;5083349;28;20024;-77
2024/01/16 01:31:47;;;;;;;0.22;0.22;;;;;;;3.12;69.73;101073.22;5084561;28;20146;-78
2024/01/16 01:34:14;;;;;;;0.30;0.30;;;;;;;3.09;69.91;101078.41;5082045;28;20059;-78
2024/01/16 01:36:40;;;;;;;0.20;0.20;;;;;;;3.05;69.75;101082.72;5081978;28;20035;-77
2024/01/16 01:39:06;;;;;;;0.15;0.15;;;;;;;3.04;69.51;101095.75;5083049;28;20035;-77
2024/01/16 01:41:33;;;;;;;0.20;0.20;;;;;;;3.10;69.92;101101.09;5089076;28;20046;-78
2024/01/16 01:43:59;;;;;;;0.20;0.20;;;;;;;3.10;69.35;101108.09;5088648;28;20089;-79
2024/01/16 01:46:25;;;;;;;0.20;0.20;;;;;;;3.16;69.74;101111.66;5087839;28;20021;-79
2024/01/16 01:48:52;;;;;;;0.20;0.20;;;;;;;3.15;69.78;101104.66;5086565;28;20630;-79
2024/01/16 01:51:19;;;;;;;0.20;0.20;;;;;;;3.19;70.04;101108.19;5086359;28;20021;-78
2024/01/16 01:53:48;;;;;;;0.20;0.20;;;;;;;3.18;69.92;101107.34;5086311;28;20032;-79
2024/01/16 01:56:17;;;;;;;0.20;0.20;;;;;;;3.16;69.68;101109.03;5082108;28;20039;-79
2024/01/16 01:58:48;;;;;;;0.20;0.20;;;;;;;3.22;70.40;101095.16;5081880;28;20052;-78
2024/01/16 02:01:16;;;;;;;0.20;0.20;;;;;;;3.17;70.42;101089.84;5082852;28;20043;-78
2024/01/16 02:03:45;;;;;;;0.20;0.20;;;;;;;3.15;69.90;101094.19;5084115;28;20021;-77
2024/01/16 02:06:12;;;;;;;0.20;0.20;;;;;;;3.16;70.35;101093.34;5089620;28;20033;-77
2024/01/16 02:08:40;;;;;;;0.20;0.20;;;;;;;3.16;69.88;101090.72;5085517;28;20017;-75
2024/01/16 02:11:07;;;;;;;0.22;0.22;;;;;;;3.16;70.19;101089.84;5080699;28;20032;-76
2024/01/16 02:13:33;;;;;;;0.20;0.20;;;;;;;3.15;69.96;101078.47;5074276;28;20439;-77
2024/01/16 02:15:59;;;;;;;0.20;0.20;;;;;;;3.15;70.51;101081.09;5071636;28;20057;-79
2024/01/16 02:18:25;;;;;;;0.20;0.20;;;;;;;3.07;70.36;101086.22;5073065;28;20044;-77
2024/01/16 02:20:52;;;;;;;0.20;0.20;;;;;;;3.10;70.16;101082.78;5072860;28;20073;-77
2024/01/16 02:23:27;;;;;;;0.20;0.20;;;;;;;3.15;70.21;101075.00;5072924;28;20042;-77
2024/01/16 02:25:54;;;;;;;0.20;0.20;;;;;;;3.02;70.39;101082.66;5071810;28;20376;-77
2024/01/16 02:28:20;;;;;;;0.20;0.20;;;;;;;3.00;70.97;101073.03;5071499;28;20031;-76
2024/01/16 02:30:47;;;;;;;0.10;0.10;;;;;;;3.03;70.96;101075.72;5072100;28;20411;-76
2024/01/16 02:33:13;;;;;;;0.20;0.20;;;;;;;3.03;70.62;101070.47;5071801;28;20037;-76
2024/01/16 02:35:39;;;;;;;0.25;0.25;;;;;;;3.02;70.85;101072.19;5071676;28;20161;-76
2024/01/16 02:38:05;;;;;;;0.20;0.20;;;;;;;3.05;71.04;101076.59;5071463;28;20036;-76
2024/01/16 02:40:32;;;;;;;0.20;0.20;;;;;;;3.01;70.99;101070.44;5070220;28;20036;-77
2024/01/16 02:42:58;;;;;;;0.20;0.20;;;;;;;2.95;71.02;101086.03;5072096;28;20036;-77
2024/01/16 02:45:24;;;;;;;0.20;0.20;;;;;;;2.98;71.44;101074.72;5072246;28;20030;-75
2024/01/16 02:47:50;;;;;;;0.20;0.20;;;;;;;2.85;71.70;101077.16;5071723;28;20028;-77
2024/01/16 02:50:17;;;;;;;0.20;0.20;;;;;;;2.80;71.59;101076.22;5073871;28;20063;-77
2024/01/16 02:52:43;;;;;;;2.55;2.38;;;;;;;2.83;72.15;101076.28;5073701;28;20471;-77
2024/01/16 02:55:09;;;;;;;0.20;0.20;;;;;;;2.80;72.71;101070.13;5071268;28;20495;-77
2024/01/16 02:57:35;;;;;;;0.30;0.30;;;;;;;2.85;72.00;101074.53;5076278;28;20047;-77
2024/01/16 03:00:02;;;;;;;0.20;0.20;;;;;;;2.83;72.04;101076.28;5074296;28;20391;-77
2024/01/16 03:02:29;;;;;;;0.20;0.20;;;;;;;2.88;72.42;101072.00;5076619;28;20028;-77
2024/01/16 03:04:55;;;;;;;0.20;0.20;;;;;;;2.77;72.37;101075.28;5084234;28;20020;-77
2024/01/16 03:07:22;;;;;;;0.20;0.20;;;;;;;2.84;72.27;101066.69;5081125;28;20036;-78
2024/01/16 03:09:48;;;;;;;0.20;0.20;;;;;;;2.78;72.79;101077.94;5075565;28;20112;-77
2024/01/16 03:12:14;;;;;;;0.20;0.20;;;;;;;2.79;72.56;101073.59;5074032;28;20029;-78
2024/01/16 03:14:40;;;;;;;0.10;0.10;;;;;;;2.80;72.77;101070.97;5075773;28;20031;-78
2024/01/16 03:17:07;;;;;;;0.20;0.20;;;;;;;2.78;72.24;101072.72;5085515;28;20040;-77
2024/01/16 03:19:33;;;;;;;0.20;0.20;;;;;;;2.83;72.68;101064.91;5085286;28;20029;-77
2024/01/16 03:21:59;;;;;;;0.20;0.20;;;;;;;2.86;72.29;101060.59;5072523;28;20407;-77
2024/01/16 03:24:26;;;;;;;0.20;0.20;;;;;;;2.89;71.85;101051.91;5076630;28;20556;-78
2024/01/16 03:26:52;;;;;;;0.20;0.20;;;;;;;2.90;72.01;101057.19;5074789;28;20376;-76
2024/01/16 03:29:18;;;;;;;0.20;0.20;;;;;;;2.92;72.10;101051.97;5074666;28;20028;-76
2024/01/16 03:31:44;;;;;;;0.22;0.22;;;;;;;2.89;72.12;101054.53;5074174;28;20492;-77
2024/01/16 03:34:11;;;;;;;0.20;0.20;;;;;;;2.83;72.50;101057.97;5072843;28;20438;-77
2024/01/16 03:36:37;;;;;;;0.30;0.30;;;;;;;2.87;72.01;101051.91;5070607;28;20032;-77
2024/01/16 03:39:04;;;;;;;0.20;0.20;;;;;;;2.83;72.61;101054.44;5072548;28;20454;-76
2024/01/16 03:41:30;;;;;;;0.20;0.20;;;;;;;2.81;72.28;101051.81;5070702;28;20029;-76
2024/01/16 03:43:56;;;;;;;0.20;0.20;;;;;;;2.84;71.77;101044.03;5070363;28;20168;-76
2024/01/16 03:46:23;;;;;;;0.20;0.20;;;;;;;2.81;72.02;101050.94;5074767;28;20024;-78
2024/01/16 03:48:49;;;;;;;0.20;0.20;;;;;;;2.79;72.45;101048.31;5089793;28;20584;-78
2024/01/16 03:51:17;;;;;;;0.20;0.20;;;;;;;2.69;72.30;101062.97;5088186;28;20036;-78
2024/01/16 03:53:43;;;;;;;0.20;0.20;;;;;;;2.70;72.49;101062.09;5087081;28;20037;-79
2024/01/16 03:56:10;;;;;;;0.75;0.75;;;;;;;2.71;72.42;101068.22;5086332;28;20036;-78
2024/01/16 03:58:36;;;;;;;0.20;0.20;;;;;;;2.66;72.38;101062.06;5088494;28;20102;-79
2024/01/16 04:01:02;;;;;;;0.20;0.20;;;;;;;2.71;72.55;101060.38;5082567;28;20021;-77
2024/01/16 04:03:28;;;;;;;0.20;0.20;;;;;;;2.72;72.16;101063.00;5087127;28;20041;-79
2024/01/16 04:05:54;;;;;;;0.20;0.20;;;;;;;2.74;72.43;101063.03;5088729;28;20032;-78
2024/01/16 04:08:21;;;;;;;0.22;0.22;;;;;;;2.76;72.41;101069.19;5086675;28;20572;-78
2024/01/16 04:10:47;;;;;;;0.20;0.20;;;;;;;2.81;72.37;101066.66;5076631;28;20025;-78
2024/01/16 04:13:13;;;;;;;0.20;0.20;;;;;;;2.72;73.39;101065.63;5090479;28;20091;-78
2024/01/16 04:15:40;;;;;;;0.20;0.20;;;;;;;2.91;72.89;101063.31;5085264;28;20283;-78
2024/01/16 04:18:07;;;;;;;0.20;0.20;;;;;;;2.90;72.53;101067.66;5074088;28;20032;-78
2024/01/16 04:20:33;;;;;;;0.20;0.20;;;;;;;2.98;72.47;101061.66;5089215;28;20243;-78
2024/01/16 04:22:59;;;;;;;0.20;0.20;;;;;;;3.00;72.81;101059.94;5082892;28;20226;-77
2024/01/16 04:25:25;;;;;;;0.20;0.20;;;;;;;2.92;73.04;101057.22;5081445;28;20071;-78
2024/01/16 04:27:51;;;;;;;0.20;0.20;;;;;;;2.92;72.85;101060.69;5090854;28;20055;-77
2024/01/16 04:30:20;;;;;;;0.28;0.28;;;;;;;2.95;73.21;101054.63;5088865;28;20086;-77
2024/01/16 04:32:46;;;;;;;0.20;0.20;;;;;;;2.97;72.67;101054.69;5096870;28;20035;-78
2024/01/16 04:35:12;;;;;;;0.20;0.20;;;;;;;2.96;73.16;101045.06;5085912;28;20040;-78
2024/01/16 04:37:38;;;;;;;0.20;0.20;;;;;;;2.99;72.54;101045.09;5086873;28;20772;-78
2024/01/16 04:40:05;;;;;;;0.20;0.20;;;;;;;3.03;72.75;101044.28;5081174;28;20037;-78
2024/01/16 04:42:32;;;;;;;0.20;0.20;;;;;;;3.00;72.83;101049.47;5073134;28;20025;-78
2024/01/16 04:44:58;;;;;;;0.20;0.20;;;;;;;3.05;72.65;101039.94;5079372;28;20145;-78
2024/01/16 04:47:25;;;;;;;0.20;0.20;;;;;;;3.06;72.72;101041.69;5079786;28;20398;-78
2024/01/16 04:49:51;;;;;;;0.20;0.20;;;;;;;3.02;72.74;101040.78;5078664;28;20017;-78
2024/01/16 04:52:17;;;;;;;0.20;0.20;;;;;;;3.02;73.01;101046.00;5076198;28;20048;-79
2024/01/16 04:54:45;;;;;;;0.20;0.20;;;;;;;3.04;73.18;101054.78;5077069;28;20028;-79
2024/01/16 04:57:11;;;;;;;0.20;0.20;;;;;;;3.05;73.20;101043.47;5076995;28;20032;-78
2024/01/16 04:59:38;;;;;;;0.30;0.30;;;;;;;3.09;73.07;101039.16;5080562;28;20107;-79
2024/01/16 05:02:04;;;;;;;0.20;0.20;;;;;;;3.07;72.68;101040.84;5080293;28;20098;-78
2024/01/16 05:04:30;;;;;;;0.20;0.20;;;;;;;3.06;73.13;101039.09;5082858;28;20033;-78
2024/01/16 05:06:56;;;;;;;0.20;0.20;;;;;;;3.11;73.10;101031.31;5083397;28;20039;-79
2024/01/16 05:09:22;;;;;;;0.20;0.20;;;;;;;3.08;73.29;101025.16;5078167;28;20029;-78
2024/01/16 05:11:49;;;;;;;0.20;0.20;;;;;;;3.15;72.82;101015.63;5081510;28;20024;-79
2024/01/16 05:14:15;;;;;;;0.20;0.20;;;;;;;3.18;72.86;101018.31;5076883;28;20096;-77
2024/01/16 05:16:41;;;;;;;0.20;0.20;;;;;;;3.21;72.82;101014.84;5078959;28;20703;-79
2024/01/16 05:19:07;;;;;;;0.20;0.20;;;;;;;3.22;73.11;101009.63;5080848;28;20029;-79
2024/01/16 05:21:33;;;;;;;0.20;0.20;;;;;;;3.24;72.94;101004.44;5080465;28;20029;-78
2024/01/16 05:23:59;;;;;;;0.20;0.20;;;;;;;3.22;73.12;101004.38;5080071;28;20037;-78
2024/01/16 05:26:26;;;;;;;0.20;0.20;;;;;;;3.22;73.07;101001.78;5076195;28;20032;-79
2024/01/16 05:28:52;;;;;;;0.20;0.20;;;;;;;3.19;72.71;100996.50;5083998;28;20039;-79
2024/01/16 05:31:19;;;;;;;0.20;0.20;;;;;;;3.21;72.76;100999.13;5075402;28;20036;-78
2024/01/16 05:33:45;;;;;;;0.20;0.20;;;;;;;3.18;72.93;100992.13;5080643;28;20024;-78
2024/01/16 05:36:11;;;;;;;0.17;0.17;;;;;;;3.20;73.10;100997.38;5086563;28;20049;-79
2024/01/16 05:38:38;;;;;;;0.15;0.15;;;;;;;3.19;73.12;100988.66;5089255;28;20025;-78
2024/01/16 05:41:05;;;;;;;0.20;0.20;;;;;;;3.21;72.68;100986.03;5085988;28;20037;-78
2024/01/16 05:43:31;;;;;;;0.20;0.20;;;;;;;3.18;72.81;100975.56;5086127;28;20029;-78
2024/01/16 05:45:57;;;;;;;0.20;0.20;;;;;;;3.17;73.09;100977.28;5086942;28;20028;-78
2024/01/16 05:48:23;;;;;;;0.20;0.20;;;;;;;3.16;72.74;100972.88;5103980;28;20033;-78
2024/01/16 05:50:49;;;;;;;0.20;0.20;;;;;;;3.18;72.53;100981.66;5094628;28;20052;-79
2024/01/16 05:53:15;;;;;;;0.15;0.15;;;;;;;3.19;72.63;100974.66;5088370;28;20083;-78
2024/01/16 05:55:41;;;;;;;0.20;0.20;;;;;;;3.20;73.00;100968.56;5087705;28;20071;-78
2024/01/16 05:58:08;;;;;;;0.20;0.20;;;;;;;3.19;72.49;100969.44;5085668;28;20036;-79
2024/01/16 06:00:34;;;;;;;0.20;0.20;;;;;;;3.18;72.53;100971.19;5080907;28;20025;-79
2024/01/16 06:03:00;;;;;;;0.22;0.22;;;;;;;3.20;72.73;100974.72;5072635;28;20029;-78
2024/01/16 06:05:26;;;;;;;0.20;0.20;;;;;;;3.18;72.66;100968.56;5085328;28;20115;-78
2024/01/16 06:07:52;;;;;;;0.20;0.20;;;;;;;3.18;72.65;100968.56;5078600;28;20063;-78
2024/01/16 06:10:19;;;;;;;0.20;0.20;;;;;;;3.17;72.90;100958.94;5080339;28;20101;-78
2024/01/16 06:12:45;;;;;;;0.20;0.20;;;;;;;3.18;72.35;100967.69;5081019;28;20055;-78
2024/01/16 06:15:11;;;;;;;0.20;0.20;;;;;;;3.16;72.81;100964.16;5082121;28;20056;-78
2024/01/16 06:17:37;;;;;;;0.20;0.20;;;;;;;3.17;72.67;100961.56;5080773;28;20028;-78
2024/01/16 06:20:06;;;;;;;0.32;0.32;;;;;;;3.17;72.88;100958.06;5081764;28;20117;-78
2024/01/16 06:22:32;;;;;;;0.20;0.20;;;;;;;3.17;72.56;100961.56;5078090;28;20024;-77
2024/01/16 06:24:58;;;;;;;0.40;0.40;;;;;;;3.17;72.90;100958.06;5076702;28;20024;-77
2024/01/16 06:27:24;;;;;;;0.30;0.30;;;;;;;3.13;72.38;100967.63;5075645;28;20403;-77
2024/01/16 06:29:51;;;;;;;0.20;0.20;;;;;;;3.10;72.81;100964.09;5075913;28;20190;-78
2024/01/16 06:32:17;;;;;;;0.10;0.10;;;;;;;3.06;72.63;100969.28;5074842;28;20051;-78
2024/01/16 06:34:43;;;;;;;0.20;0.20;;;;;;;3.04;72.47;100970.13;5075775;28;20086;-79
2024/01/16 06:37:10;;;;;;;0.20;0.20;;;;;;;3.02;72.66;100977.09;5075206;28;20041;-79
2024/01/16 06:39:37;;;;;;;0.85;0.85;;;;;;;3.01;72.57;100972.69;5073813;28;20079;-78
2024/01/16 06:42:04;;;;;;;0.20;0.20;;;;;;;2.99;72.50;100971.78;5074030;28;20067;-77
2024/01/16 06:44:31;;;;;;;0.15;0.15;;;;;;;2.95;72.34;100965.63;5075851;28;20028;-78
2024/01/16 06:46:57;;;;;;;0.20;0.20;;;;;;;2.96;72.52;100967.41;5065617;28;20029;-77
2024/01/16 06:49:23;;;;;;;0.20;0.20;;;;;;;2.92;72.07;100969.09;5075409;28;20128;-77
2024/01/16 06:51:49;;;;;;;0.10;0.10;;;;;;;2.89;72.44;100965.56;5080599;28;20041;-76
2024/01/16 06:54:15;;;;;;;0.10;0.10;;;;;;;2.84;72.40;100970.75;5091802;28;20032;-77
2024/01/16 06:56:41;;;;;;;0.20;0.20;;;;;;;2.84;72.24;100973.38;5093428;28;20044;-81
2024/01/16 06:59:08;;;;;;;0.20;0.20;;;;;;;2.80;71.75;100968.06;5078304;28;20036;-78
2024/01/16 07:01:34;;;;;;;0.20;0.20;;;;;;;2.81;72.24;100967.22;5083991;28;20036;-78
2024/01/16 07:04:00;;;;;;;0.30;0.30;;;;;;;2.80;72.07;100973.28;5074562;28;20107;-78
2024/01/16 07:06:26;;;;;;;0.20;0.20;;;;;;;2.81;72.18;100970.69;5078991;28;20057;-77
2024/01/16 07:08:53;;;;;;;0.20;0.20;;;;;;;2.77;72.03;100973.22;5080824;28;20110;-78
2024/01/16 07:11:20;;;;;;;0.20;0.20;;;;;;;2.74;71.50;100982.81;5076573;28;20035;-78
2024/01/16 07:13:47;;;;;;;0.20;0.20;;;;;;;2.69;71.39;100979.25;5084481;28;20029;-78
2024/01/16 07:16:14;;;;;;;0.20;0.20;;;;;;;2.75;71.33;100979.34;5081989;28;20150;-77
2024/01/16 07:18:40;;;;;;;0.20;0.20;;;;;;;2.70;71.07;100974.91;5080141;28;20056;-77
2024/01/16 07:21:17;;;;;;;0.20;0.20;;;;;;;2.75;71.42;100988.91;5077294;28;20025;-77
2024/01/16 07:23:44;;;;;;;0.57;0.57;;;;;;;2.73;71.06;100990.66;5074907;28;20090;-78
2024/01/16 07:26:10;;;;;;;0.10;0.10;;;;;;;2.70;71.35;100981.00;5077251;28;20054;-78
2024/01/16 07:28:36;;;;;;;0.20;0.20;;;;;;;2.74;71.32;100995.00;5073412;28;20087;-78
2024/01/16 07:31:02;;;;;;;0.40;0.40;;;;;;;2.75;70.95;100995.06;5078460;28;20024;-78
2024/01/16 07:33:28;;;;;;;0.20;0.20;;;;;;;2.72;71.16;101002.84;5078443;28;20020;-79
2024/01/16 07:35:54;;;;;;;0.20;0.20;;;;;;;2.76;70.85;101009.00;5077428;28;20437;-80
2024/01/16 07:38:21;;;;;;;0.20;0.20;;;;;;;2.78;71.34;101004.69;5079115;28;20059;-80
2024/01/16 07:40:47;;;;;;;0.20;0.20;;;;;;;2.74;70.52;101005.47;5078229;28;20046;-79
2024/01/16 07:43:13;;;;;;;0.20;0.20;;;;;;;2.80;70.81;101005.56;5070843;28;20040;-78
2024/01/16 07:45:39;;;;;;;0.20;0.20;;;;;;;2.81;71.02;101012.56;5076933;28;20100;-78
2024/01/16 07:48:06;;;;;;;0.20;0.20;;;;;;;2.84;70.92;101006.50;5079927;28;20114;-80
2024/01/16 07:50:32;;;;;;;0.20;0.20;;;;;;;2.80;70.55;101008.19;5077219;28;20079;-78
2024/01/16 07:52:58;;;;;;;0.20;0.20;;;;;;;2.80;70.29;101007.31;5077420;28;20121;-80
2024/01/16 07:55:24;;;;;;;0.20;0.20;;;;;;;2.83;69.97;101015.19;5078418;28;20495;-81
2024/01/16 07:57:50;;;;;;;0.20;0.20;;;;;;;2.79;70.14;101010.78;5071406;28;20097;-79
2024/01/16 08:00:16;;;;;;;0.20;0.20;;;;;;;2.77;69.61;101004.63;5074457;28;20029;-79
2024/01/16 08:02:45;;;;;;;0.20;0.20;;;;;;;2.81;69.84;101003.84;5071842;28;20029;-80
2024/01/16 08:05:11;;;;;;;0.20;0.20;;;;;;;2.76;69.89;100998.53;5072585;28;20035;-77
2024/01/16 08:07:37;;;;;;;0.20;0.20;;;;;;;2.75;70.03;100996.78;5087608;28;20029;-79
2024/01/16 08:10:04;;;;;;;0.20;0.20;;;;;;;2.76;69.78;100995.91;5083037;28;20040;-79
2024/01/16 08:12:30;;;;;;;0.20;0.20;;;;;;;2.75;69.02;100995.06;5079568;28;20037;-79
2024/01/16 08:14:56;;;;;;;0.20;0.20;;;;;;;2.80;69.56;100997.72;5078467;28;20027;-80
2024/01/16 08:17:22;;;;;;;0.20;0.20;;;;;;;2.84;69.95;100994.31;5077709;28;20039;-80
2024/01/16 08:19:48;;;;;;;0.20;0.20;;;;;;;2.80;69.41;100995.09;5071996;28;20032;-78
2024/01/16 08:22:15;;;;;;;0.20;0.20;;;;;;;2.80;69.30;101002.94;5073258;28;20415;-79
2024/01/16 08:24:41;;;;;;;0.20;0.20;;;;;;;2.79;69.01;101000.31;5075126;28;20051;-79
2024/01/16 08:27:07;;;;;;;0.20;0.20;;;;;;;2.78;68.66;101004.69;5070766;28;20377;-77
2024/01/16 08:29:33;;;;;;;0.20;0.20;;;;;;;2.83;69.90;101002.09;5073050;28;20538;-77
2024/01/16 08:31:59;;;;;;;0.20;0.20;;;;;;;2.78;69.46;101007.28;5076248;28;20036;-78
2024/01/16 08:34:25;;;;;;;0.30;0.30;;;;;;;2.80;69.77;100997.72;5079273;28;20568;-78
2024/01/16 08:36:56;;;;;;;0.20;0.20;;;;;;;2.84;69.55;101004.78;5078692;28;20506;-78
2024/01/16 08:39:24;;;;;;;0.20;0.20;;;;;;;2.84;69.14;101004.78;5077038;28;20024;-77
2024/01/16 08:41:50;;;;;;;0.20;0.20;;;;;;;2.84;68.97;101012.63;5074972;28;20115;-78
2024/01/16 08:44:16;;;;;;;0.20;0.20;;;;;;;2.84;69.58;101012.63;5075267;28;20029;-78
2024/01/16 08:46:42;;;;;;;0.20;0.20;;;;;;;2.80;68.17;101002.06;5075322;28;20047;-77
2024/01/16 08:49:11;;;;;;;0.20;0.20;;;;;;;2.81;68.91;100999.47;5077159;28;20032;-78
2024/01/16 08:51:37;;;;;;;0.20;0.20;;;;;;;2.86;68.54;100997.78;5076648;28;20096;-80
2024/01/16 08:54:03;;;;;;;0.20;0.20;;;;;;;2.91;68.99;101006.59;5076972;28;20063;-78
2024/01/16 08:56:29;;;;;;;0.20;0.20;;;;;;;2.95;69.04;101001.41;5068137;28;20032;-80
2024/01/16 08:58:56;;;;;;;0.20;0.20;;;;;;;2.92;69.05;101003.13;5070341;28;20099;-80
2024/01/16 09:01:22;;;;;;;0.20;0.20;;;;;;;2.95;68.83;101004.03;5077264;28;20032;-80
2024/01/16 09:03:48;;;;;;;0.30;0.30;;;;;;;3.00;68.70;101007.59;5077358;28;20056;-79
2024/01/16 09:06:14;;;;;;;0.20;0.20;;;;;;;2.90;68.84;100994.38;5076747;28;20057;-79
2024/01/16 09:08:40;;;;;;;0.20;0.20;;;;;;;2.84;68.20;101003.88;5077050;28;20099;-79
2024/01/16 09:11:06;;;;;;;0.50;0.50;;;;;;;2.91;68.68;101001.34;5075614;28;20790;-78
2024/01/16 09:13:33;;;;;;;0.20;0.20;;;;;;;3.03;69.13;100995.41;5074472;28;20036;-78
2024/01/16 09:15:59;;;;;;;0.20;0.20;;;;;;;2.98;68.86;101004.06;5081505;28;20190;-77
2024/01/16 09:18:25;;;;;;;0.20;0.20;;;;;;;2.92;68.27;101003.13;5088114;28;20040;-77
2024/01/16 09:20:51;;;;;;;0.20;0.20;;;;;;;2.98;68.60;101006.69;5076418;28;20384;-79
2024/01/16 09:23:18;;;;;;;0.20;0.20;;;;;;;3.01;68.15;101011.97;5076772;28;20044;-78
2024/01/16 09:25:44;;;;;;;0.20;0.20;;;;;;;2.99;67.86;101013.69;5077052;28;20099;-79
2024/01/16 09:28:10;;;;;;;0.20;0.20;;;;;;;3.08;68.32;101009.44;5068981;28;20452;-79
2024/01/16 09:30:36;;;;;;;0.20;0.20;;;;;;;3.07;67.92;101012.06;5075535;28;20036;-78
2024/01/16 09:33:04;;;;;;;0.20;0.20;;;;;;;2.95;67.52;101010.13;5074690;28;20043;-78
2024/01/16 09:35:30;;;;;;;0.20;0.20;;;;;;;3.06;66.93;101016.38;5075645;28;20013;-78
2024/01/16 09:37:56;;;;;;;0.20;0.20;;;;;;;3.09;68.08;101005.13;5076206;28;20086;-77
2024/01/16 09:40:22;;;;;;;0.20;0.20;;;;;;;3.11;66.98;101002.50;5070817;28;20038;-78
2024/01/16 09:42:49;;;;;;;0.20;0.20;;;;;;;3.14;67.34;101002.53;5071596;28;20618;-78
2024/01/16 09:45:21;;;;;;;0.20;0.20;;;;;;;3.22;67.31;101001.78;5072708;28;20036;-78
2024/01/16 09:47:50;;;;;;;0.20;0.20;;;;;;;3.18;67.45;100999.97;5077022;28;20423;-78
2024/01/16 09:50:17;;;;;;;0.20;0.20;;;;;;;3.16;66.85;100996.44;5076777;28;20055;-79
2024/01/16 09:52:45;;;;;;;0.20;0.20;;;;;;;3.20;67.38;100997.38;5073895;28;20657;-79
2024/01/16 09:55:11;;;;;;;0.20;0.20;;;;;;;3.18;66.92;100992.13;5068461;28;20036;-77
2024/01/16 09:57:40;;;;;;;0.30;0.30;;;;;;;3.16;66.26;100990.34;5073767;28;20017;-78
2024/01/16 10:00:11;;;;;;;0.20;0.20;;;;;;;3.22;66.83;100991.28;5071012;28;20028;-78
2024/01/16 10:02:40;;;;;;;0.20;0.20;;;;;;;3.30;67.19;100985.28;5076536;28;20044;-78
2024/01/16 10:05:08;;;;;;;0.20;0.20;;;;;;;3.36;67.15;100987.97;5070627;28;20021;-79
2024/01/16 10:07:37;;;;;;;0.20;0.20;;;;;;;3.38;66.60;100986.25;5077626;28;20039;-79
2024/01/16 10:10:04;;;;;;;0.20;0.20;;;;;;;3.46;66.96;100988.97;5074205;28;20029;-79
2024/01/16 10:12:32;;;;;;;0.20;0.20;;;;;;;3.48;66.05;100993.34;5064577;28;20044;-78
2024/01/16 10:14:58;;;;;;;0.20;0.20;;;;;;;3.52;66.47;100984.66;5075364;28;20024;-79
2024/01/16 10:17:40;;;;;;;0.20;0.20;;;;;;;3.54;66.11;100979.47;5073576;28;20539;-79
2024/01/16 10:20:07;;;;;;;0.20;0.20;;;;;;;3.54;66.01;100972.47;5081834;28;20016;-80
2024/01/16 10:22:34;;;;;;;0.20;0.20;;;;;;;3.55;65.01;100968.09;5094492;28;20028;-81
2024/01/16 10:25:16;;;;;;;0.20;0.20;;;;;;;3.61;65.06;100972.53;5089738;28;20113;-82
2024/01/16 10:27:42;;;;;;;0.30;0.30;;;;;;;3.66;64.94;100970.84;5088202;28;20017;-80
2024/01/16 10:30:10;;;;;;;0.20;0.20;;;;;;;3.71;64.90;100974.38;5079536;28;20036;-79
2024/01/16 10:32:38;;;;;;;0.32;0.32;;;;;;;3.68;64.85;100977.00;5085701;28;20024;-81
2024/01/16 10:35:08;;;;;;;0.20;0.20;;;;;;;3.71;64.18;100977.00;5088119;28;20025;-79
2024/01/16 10:43:01;;;;;;;0.20;0.20;;;;;;;3.84;64.87;100971.03;5109654;27;20400;-79
2024/01/16 10:45:27;;;;;;;0.20;0.20;;;;;;;3.89;63.98;100969.31;5105224;28;20039;-79
2024/01/16 10:48:03;;;;;;;0.20;0.20;;;;;;;3.90;64.40;100970.22;5101771;28;20062;-79
2024/01/16 10:50:29;;;;;;;0.47;0.47;;;;;;;3.87;64.19;100968.41;5099987;28;20024;-80
2024/01/16 10:52:59;;;;;;;0.20;0.20;;;;;;;3.92;65.15;100963.22;5096113;28;20067;-81
2024/01/16 10:55:27;;;;;;;0.77;0.77;;;;;;;3.91;64.87;100964.09;5101198;28;20066;-80
2024/01/16 10:57:56;;;;;;;0.20;0.20;;;;;;;3.93;64.49;100957.13;5106402;28;20073;-80
2024/01/16 11:00:24;;;;;;;0.20;0.20;;;;;;;4.01;64.38;100951.94;5103084;28;20031;-80
2024/01/16 11:05:31;;;;;;;0.17;0.17;;;;;;;4.05;64.56;100954.63;5117902;27;20387;-83
2024/01/16 11:08:03;;;;;;;0.20;0.20;;;;;;;4.17;65.07;100939.84;5099053;28;21582;-79
2024/01/16 11:10:30;;;;;;;0.20;0.20;;;;;;;4.18;64.27;100934.59;5095560;28;20031;-79
2024/01/16 11:13:01;;;;;;;0.20;0.20;;;;;;;4.16;64.52;100931.13;5095947;28;20055;-78
2024/01/16 11:15:28;;;;;;;0.20;0.20;;;;;;;4.29;64.68;100931.22;5095554;28;20028;-79
2024/01/16 11:17:56;;;;;;;0.20;0.20;;;;;;;4.32;64.42;100920.72;5097086;28;20029;-79
2024/01/16 11:20:23;;;;;;;0.20;0.20;;;;;;;4.44;64.63;100926.06;5098985;28;20043;-79
2024/01/16 11:22:50;;;;;;;0.17;0.17;;;;;;;4.42;63.40;100932.16;5094862;28;20035;-78
2024/01/16 11:25:18;;;;;;;0.17;0.17;;;;;;;4.52;63.84;100926.09;5100010;28;20032;-78
2024/01/16 11:27:50;;;;;;;0.20;0.20;;;;;;;4.51;63.14;100917.38;5100489;28;20024;-79
2024/01/16 11:30:29;;;;;;;;;;;;;;;4.70;63.09;100909.59;5098497;28;20127;-77
2024/01/16 11:32:55;;;;;;;0.20;0.20;;;;;;;4.58;62.62;100904.28;5098509;28;19912;-79
2024/01/16 11:35:36;;;;;;;0.38;0.38;;;;;;;4.69;62.26;100911.31;5103652;28;20047;-79
2024/01/16 11:38:06;;;;;;;0.20;0.20;;;;;;;4.74;63.05;100908.72;5106456;28;20082;-78
2024/01/16 11:40:33;;;;;;;0.20;0.20;;;;;;;4.77;62.16;100903.50;5100458;28;20035;-78